createdAt,value
2018-07-22T00:13:21.704Z,72.95
2018-07-22T00:28:26.719Z,73.54
2018-07-22T00:43:31.081Z,74.04
2018-07-22T00:58:36.437Z,74.51
2018-07-22T01:13:41.683Z,73.35
2018-07-22T01:51:00.101Z,76.85
2018-07-22T02:06:04.660Z,74.96
2018-07-22T02:21:23.626Z,75.49
2018-07-22T02:36:46.130Z,77.98
2018-07-22T02:52:41.604Z,79.03
2018-07-22T05:55:43.734Z,44.94
2018-07-22T07:03:04.069Z,38.29
2018-07-22T07:18:07.933Z,37.55
2018-07-22T07:33:11.732Z,36.56
2018-07-22T07:48:15.571Z,38.00
2018-07-22T08:03:19.376Z,38.71
2018-07-22T08:18:23.194Z,37.09
2018-07-22T08:33:27.048Z,39.13
2018-07-22T08:48:30.893Z,37.32
2018-07-22T09:03:34.757Z,36.41
2018-07-22T09:18:40.123Z,37.67
2018-07-22T09:33:44.128Z,34.18
2018-07-22T09:48:48.081Z,34.92
2018-07-22T10:03:51.867Z,34.95
2018-07-22T10:18:55.688Z,33.27
2018-07-22T10:33:59.507Z,36.66
2018-07-22T10:49:03.393Z,34.88
2018-07-22T11:04:07.373Z,31.35
2018-07-22T11:19:11.443Z,31.82
2018-07-22T11:34:15.437Z,32.46
2018-07-22T11:49:19.265Z,33.33
2018-07-22T12:04:23.275Z,31.54
2018-07-22T12:19:27.149Z,31.10
2018-07-22T12:34:31.203Z,32.50
2018-07-22T12:49:35.140Z,37.07
2018-07-22T13:04:39.123Z,53.67
2018-07-22T13:19:42.919Z,70.60
2018-07-22T13:34:46.796Z,76.68
2018-07-22T13:49:50.660Z,74.05
2018-07-22T14:04:54.480Z,74.59
2018-07-22T14:19:58.712Z,71.20
2018-07-22T14:35:02.708Z,68.54
2018-07-22T14:50:06.827Z,68.67
2018-07-22T15:05:10.718Z,60.35
2018-07-22T15:20:14.687Z,49.66
2018-07-22T15:35:18.519Z,54.20
2018-07-22T15:50:22.401Z,53.51
2018-07-22T16:05:26.159Z,54.18
2018-07-22T16:20:30.287Z,59.82
2018-07-22T16:35:34.233Z,61.81
2018-07-22T16:50:38.228Z,64.45
2018-07-22T17:05:42.234Z,67.88
2018-07-22T17:20:46.205Z,68.10
2018-07-22T17:35:50.042Z,64.33
2018-07-22T17:50:54.112Z,64.93
2018-07-22T18:05:58.061Z,64.24
2018-07-22T18:21:01.902Z,69.87
2018-07-22T18:36:05.983Z,71.72
2018-07-22T18:51:10.069Z,59.98
2018-07-22T19:06:14.282Z,49.54
2018-07-22T19:21:18.103Z,63.09
2018-07-22T19:36:22.202Z,66.78
2018-07-22T19:51:26.064Z,66.92
2018-07-22T20:06:30.100Z,68.47
2018-07-22T20:21:34.023Z,67.54
2018-07-22T20:36:37.967Z,58.75
2018-07-22T20:51:41.973Z,69.42
2018-07-22T21:06:46.128Z,73.67
2018-07-22T21:21:50.255Z,76.52
2018-07-22T21:36:54.249Z,77.08
2018-07-22T21:51:58.161Z,75.80
2018-07-22T22:07:02.481Z,72.59
2018-07-22T22:22:06.386Z,72.58
2018-07-22T22:37:10.492Z,73.38
2018-07-22T22:52:14.589Z,73.39
2018-07-22T23:07:18.399Z,77.01
2018-07-22T23:22:22.411Z,76.35
2018-07-22T23:37:26.299Z,75.90
2018-07-22T23:52:30.121Z,76.07
